This is the latest recevied weather packets stored in our database for station/object K8GLX. If no packets are shown the sender has not sent any weather packets the latest 10 day(s).
| Time | Temp. | Humidity | Pressure | Rain* | Wind** | Luminosity | Snow |
|---|---|---|---|---|---|---|---|
| 1777831029 | 15° C | 38% | 1013.8 hPa | 0 mm | - | 783 W/m² | - |
| 1777830734 | 15° C | 37% | 1013.7 hPa | 0 mm | - | 778 W/m² | - |
| 1777830429 | 15° C | 38% | 1013.6 hPa | 0 mm | - | 784 W/m² | - |
| 1777830134 | 15° C | 38% | 1013.7 hPa | 0 mm | - | 788 W/m² | - |
| 1777829828 | 15° C | 38% | 1013.8 hPa | 0 mm | - | 772 W/m² | - |
| 1777829534 | 15° C | 39% | 1014.1 hPa | 0 mm | - | 691 W/m² | - |
| 1777829229 | 14.44° C | 39% | 1014 hPa | 0 mm | - | 748 W/m² | - |
| 1777828935 | 14.44° C | 40% | 1014 hPa | 0 mm | - | 780 W/m² | - |
| 1777828629 | 14.44° C | 41% | 1014.1 hPa | 0 mm | - | 778 W/m² | - |
| 1777828461 | 14.44° C | 39% | 1014 hPa | 0 mm | - | 778 W/m² | - |
| 1777828029 | 14.44° C | 39% | 1014.2 hPa | 0 mm | - | 778 W/m² | - |
| 1777827735 | 14.44° C | 40% | 1014.2 hPa | 0 mm | - | 777 W/m² | - |
| 1777827429 | 13.89° C | 40% | 1014.3 hPa | 0 mm | - | 775 W/m² | - |
| 1777827263 | 13.89° C | 40% | 1014.5 hPa | 0 mm | - | 774 W/m² | - |
| 1777826829 | 13.89° C | 40% | 1014.4 hPa | 0 mm | - | 773 W/m² | - |
| 1777826541 | 13.89° C | 39% | 1014.5 hPa | 0 mm | - | 771 W/m² | - |
| 1777826229 | 13.89° C | 40% | 1014.6 hPa | 0 mm | - | 768 W/m² | - |
| 1777825935 | 13.89° C | 40% | 1014.6 hPa | 0 mm | - | 765 W/m² | - |
| 1777825629 | 13.33° C | 40% | 1014.7 hPa | 0 mm | - | 763 W/m² | - |
| 1777825461 | 13.33° C | 40% | 1014.7 hPa | 0 mm | - | 759 W/m² | - |
| 1777825029 | 13.33° C | 40% | 1014.6 hPa | 0 mm | - | 752 W/m² | - |
| 1777824735 | 13.33° C | 40% | 1014.8 hPa | 0 mm | - | 747 W/m² | - |
| 1777824429 | 13.33° C | 40% | 1014.8 hPa | 0 mm | - | 744 W/m² | - |
| 1777824134 | 12.78° C | 40% | 1015 hPa | 0 mm | - | 737 W/m² | - |
| 1777823829 | 12.78° C | 39% | 1014.9 hPa | 0 mm | - | 732 W/m² | - |
* Rain latest hour (hover to see other rain measurements)
** Current wind speed in m/s (hover to see current wind gust speed)